TimeCST,TemperatureF,Dew PointF,Humidity,Sea Level PressureIn,VisibilityMPH,Wind Direction,Wind SpeedMPH,Gust SpeedMPH,PrecipitationIn,Events,Conditions,WindDirDegrees,DateUTC
12:54 AM,23.0,12.0,63,30.22,10.0,SSW,6.9,-,N/A,,Clear,210,2013-01-16 06:54:00
1:54 AM,21.9,12.0,66,30.20,10.0,SW,6.9,-,N/A,,Clear,220,2013-01-16 07:54:00
2:54 AM,24.1,10.9,57,30.19,10.0,SW,9.2,-,N/A,,Clear,230,2013-01-16 08:54:00
3:54 AM,23.0,10.9,60,30.17,10.0,SW,8.1,-,N/A,,Clear,220,2013-01-16 09:54:00
4:54 AM,21.9,12.0,66,30.15,10.0,SW,9.2,-,N/A,,Clear,220,2013-01-16 10:54:00
5:54 AM,19.9,12.0,71,30.13,10.0,SSW,8.1,-,N/A,,Clear,210,2013-01-16 11:54:00
6:54 AM,21.0,12.0,68,30.13,10.0,SW,8.1,-,N/A,,Clear,230,2013-01-16 12:54:00
7:54 AM,21.9,12.9,68,30.15,10.0,SW,6.9,-,N/A,,Clear,230,2013-01-16 13:54:00
8:54 AM,25.0,15.1,66,30.17,10.0,SW,6.9,-,N/A,,Clear,220,2013-01-16 14:54:00
9:54 AM,28.9,17.1,61,30.18,10.0,WSW,5.8,-,N/A,,Clear,250,2013-01-16 15:54:00
10:54 AM,33.1,19.0,56,30.16,10.0,SSW,6.9,-,N/A,,Overcast,200,2013-01-16 16:54:00
11:54 AM,34.0,19.9,56,30.15,10.0,WSW,5.8,-,N/A,,Overcast,250,2013-01-16 17:54:00
1:54 PM,44.1,25.0,47,30.11,10.0,WSW,6.9,-,N/A,,Clear,250,2013-01-16 19:54:00
2:54 PM,48.0,27.0,44,30.09,10.0,West,3.5,-,N/A,,Clear,270,2013-01-16 20:54:00
3:54 PM,48.9,28.0,44,30.10,10.0,WSW,8.1,-,N/A,,Clear,250,2013-01-16 21:54:00
4:54 PM,48.0,28.0,46,30.12,10.0,West,4.6,-,N/A,,Clear,270,2013-01-16 22:54:00
5:54 PM,44.1,28.0,53,30.15,10.0,SW,3.5,-,N/A,,Clear,230,2013-01-16 23:54:00
6:54 PM,39.0,28.0,65,30.17,10.0,SSW,5.8,-,N/A,,Clear,210,2013-01-17 00:54:00
7:54 PM,36.0,27.0,70,30.18,10.0,WSW,8.1,-,N/A,,Clear,250,2013-01-17 01:54:00
8:54 PM,37.9,28.0,68,30.20,10.0,West,5.8,-,N/A,,Clear,280,2013-01-17 02:54:00
9:54 PM,39.0,28.0,65,30.22,10.0,WNW,9.2,-,N/A,,Clear,300,2013-01-17 03:54:00
10:54 PM,37.0,27.0,67,30.23,10.0,WNW,9.2,-,N/A,,Clear,300,2013-01-17 04:54:00
11:54 PM,36.0,26.1,67,30.26,10.0,NW,12.7,-,N/A,,Clear,320,2013-01-17 05:54:00